Time;durP1;ratioP1;P1;durP2;ratioP2;P2;SDS_P1;SDS_P2;PMS_P1;PMS_P2;Temp;Humidity;BMP_temperature;BMP_pressure;BME280_temperature;BME280_humidity;BME280_pressure;Samples;Min_cycle;Max_cycle;Signal;HPM_P1;HPM_P2
2021/10/05 00:01:24;;;;;;;6.85;3.85;;;;;;;;;;4836559;29;20203;-91
2021/10/05 00:04:37;;;;;;;5.20;3.47;;;;;;;;;;4842213;29;20214;-91
2021/10/05 00:07:50;;;;;;;7.07;4.15;;;;;;;;;;4854606;29;20258;-91
2021/10/05 00:11:01;;;;;;;8.57;3.70;;;;;;;;;;4853437;29;20202;-91
2021/10/05 00:14:12;;;;;;;8.82;3.40;;;;;;;;;;4864221;29;20218;-91
2021/10/05 00:17:24;;;;;;;6.78;3.60;;;;;;;;;;4854625;29;20682;-91
2021/10/05 00:20:37;;;;;;;5.93;3.60;;;;;;;;;;4854528;29;20319;-90
2021/10/05 00:23:49;;;;;;;9.05;3.95;;;;;;;;;;4864403;29;20274;-92
2021/10/05 00:27:01;;;;;;;9.27;3.50;;;;;;;;;;4863367;29;20211;-91
2021/10/05 00:30:13;;;;;;;8.07;4.00;;;;;;;;;;4864287;29;20331;-92
2021/10/05 00:33:25;;;;;;;6.40;3.70;;;;;;;;;;4864129;29;20242;-89
2021/10/05 00:36:42;;;;;;;7.57;3.65;;;;;;;;;;4854432;29;20301;-91
2021/10/05 00:39:53;;;;;;;6.30;3.42;;;;;;;;;;4852938;29;20191;-91
2021/10/05 00:43:04;;;;;;;8.77;3.40;;;;;;;;;;4864655;29;20297;-90
2021/10/05 00:46:21;;;;;;;6.50;3.60;;;;;;;;;;4860173;29;20210;-91
2021/10/05 00:49:33;;;;;;;10.40;3.58;;;;;;;;;;4854355;29;20195;-91
2021/10/05 00:52:47;;;;;;;6.97;4.00;;;;;;;;;;4854132;29;20179;-89
2021/10/05 00:55:59;;;;;;;8.27;3.80;;;;;;;;;;4854867;29;20232;-91
2021/10/05 00:59:11;;;;;;;8.73;3.60;;;;;;;;;;4836771;29;20195;-93
2021/10/05 01:02:22;;;;;;;6.93;3.75;;;;;;;;;;4836677;29;20288;-91
2021/10/05 01:05:39;;;;;;;5.80;3.30;;;;;;;;;;4836087;29;20183;-92
2021/10/05 01:08:53;;;;;;;9.00;3.70;;;;;;;;;;4835130;29;20205;-90
2021/10/05 01:12:05;;;;;;;9.57;4.25;;;;;;;;;;4837450;29;20226;-91
2021/10/05 01:15:17;;;;;;;8.68;4.00;;;;;;;;;;4837084;29;20199;-90
2021/10/05 01:18:29;;;;;;;7.93;4.25;;;;;;;;;;4836590;29;20191;-91
2021/10/05 01:21:42;;;;;;;7.28;3.90;;;;;;;;;;4853590;29;20195;-91
2021/10/05 01:24:53;;;;;;;7.80;4.18;;;;;;;;;;4853899;29;20194;-91
2021/10/05 01:28:05;;;;;;;11.80;4.18;;;;;;;;;;4864826;29;20220;-90
2021/10/05 01:31:17;;;;;;;9.05;4.50;;;;;;;;;;4852991;29;20801;-91
2021/10/05 01:34:29;;;;;;;9.60;4.10;;;;;;;;;;4865567;29;20523;-90
2021/10/05 01:37:42;;;;;;;8.82;4.13;;;;;;;;;;4863596;29;20222;-91
2021/10/05 01:40:54;;;;;;;6.50;3.65;;;;;;;;;;4854219;29;20272;-91
2021/10/05 01:44:06;;;;;;;7.88;3.58;;;;;;;;;;4854953;29;20243;-91
2021/10/05 01:47:18;;;;;;;6.22;3.20;;;;;;;;;;4863701;29;20195;-90
2021/10/05 01:50:30;;;;;;;7.00;3.45;;;;;;;;;;4864371;29;20273;-90
2021/10/05 01:53:44;;;;;;;6.05;3.45;;;;;;;;;;4863948;29;20599;-91
2021/10/05 01:56:55;;;;;;;9.60;3.78;;;;;;;;;;4864140;29;20226;-88
2021/10/05 02:00:08;;;;;;;6.25;4.00;;;;;;;;;;4844962;29;20207;-90
2021/10/05 02:03:23;;;;;;;6.55;3.80;;;;;;;;;;4833740;29;20203;-90
2021/10/05 02:06:36;;;;;;;6.90;3.90;;;;;;;;;;4833500;29;20203;-88
2021/10/05 02:09:50;;;;;;;6.18;3.70;;;;;;;;;;4835369;29;20279;-90
2021/10/05 02:13:03;;;;;;;7.72;4.10;;;;;;;;;;4836732;29;20195;-90
2021/10/05 02:16:15;;;;;;;13.80;7.68;;;;;;;;;;4838023;29;20248;-91
2021/10/05 02:19:27;;;;;;;11.65;4.38;;;;;;;;;;4835464;29;20273;-92
2021/10/05 02:22:39;;;;;;;12.90;3.90;;;;;;;;;;4852751;29;20202;-91
2021/10/05 02:25:53;;;;;;;7.53;4.00;;;;;;;;;;4853659;29;20200;-91
2021/10/05 02:29:04;;;;;;;8.95;4.30;;;;;;;;;;4864026;29;20191;-90
2021/10/05 02:32:16;;;;;;;7.68;3.97;;;;;;;;;;4864078;29;20210;-91
2021/10/05 02:35:28;;;;;;;6.30;4.22;;;;;;;;;;4863580;29;20211;-91
2021/10/05 02:38:40;;;;;;;13.68;4.45;;;;;;;;;;4863603;29;20273;-90
2021/10/05 02:41:53;;;;;;;10.13;4.45;;;;;;;;;;4863969;29;20222;-92
2021/10/05 02:45:04;;;;;;;12.20;4.90;;;;;;;;;;4845274;29;20248;-90
2021/10/05 02:48:18;;;;;;;6.85;4.32;;;;;;;;;;4840563;29;20202;-90
2021/10/05 02:51:30;;;;;;;7.93;4.40;;;;;;;;;;4845478;29;20207;-91
2021/10/05 02:54:41;;;;;;;6.65;4.30;;;;;;;;;;4836007;29;20567;-92
2021/10/05 02:57:54;;;;;;;10.70;4.22;;;;;;;;;;4836189;29;20365;-92
2021/10/05 03:01:06;;;;;;;7.63;4.25;;;;;;;;;;4835119;29;20175;-90
2021/10/05 03:04:17;;;;;;;7.57;4.13;;;;;;;;;;4835289;29;20261;-91
2021/10/05 03:07:29;;;;;;;10.82;5.43;;;;;;;;;;4845970;29;20210;-92
2021/10/05 03:10:41;;;;;;;7.72;4.70;;;;;;;;;;4862281;29;20667;-91
2021/10/05 03:13:54;;;;;;;6.80;4.25;;;;;;;;;;4854555;29;20724;-92
2021/10/05 03:17:05;;;;;;;11.65;4.97;;;;;;;;;;4863625;29;20226;-91
2021/10/05 03:20:17;;;;;;;9.93;4.97;;;;;;;;;;4844936;29;20266;-90
2021/10/05 03:23:30;;;;;;;12.13;4.60;;;;;;;;;;4836240;29;20227;-91
2021/10/05 03:26:41;;;;;;;9.95;4.60;;;;;;;;;;4835544;29;20295;-91
2021/10/05 03:29:54;;;;;;;10.00;4.80;;;;;;;;;;4836898;29;20521;-91
2021/10/05 03:33:06;;;;;;;9.98;4.40;;;;;;;;;;4836795;29;20200;-91
2021/10/05 03:36:18;;;;;;;10.63;5.18;;;;;;;;;;4835731;29;20179;-91
2021/10/05 03:39:29;;;;;;;9.23;5.47;;;;;;;;;;4835246;29;20572;-91
2021/10/05 03:42:41;;;;;;;11.50;5.20;;;;;;;;;;4834790;29;20214;-91
2021/10/05 03:45:55;;;;;;;7.10;4.30;;;;;;;;;;4836526;29;20276;-91
2021/10/05 03:49:07;;;;;;;9.30;4.68;;;;;;;;;;4833916;29;20207;-91
2021/10/05 03:52:18;;;;;;;10.15;4.95;;;;;;;;;;4834551;29;20327;-91
2021/10/05 03:55:30;;;;;;;9.32;5.00;;;;;;;;;;4835794;29;20212;-93
2021/10/05 03:58:42;;;;;;;11.65;5.70;;;;;;;;;;4834681;29;20601;-90
2021/10/05 04:01:56;;;;;;;10.52;5.65;;;;;;;;;;4834972;29;20249;-89
2021/10/05 04:05:08;;;;;;;12.45;5.05;;;;;;;;;;4833633;29;20329;-91
2021/10/05 04:08:20;;;;;;;10.65;5.60;;;;;;;;;;4834316;29;20282;-91
2021/10/05 04:11:32;;;;;;;12.50;5.43;;;;;;;;;;4836318;29;20209;-90
2021/10/05 04:14:44;;;;;;;8.43;5.13;;;;;;;;;;4840152;29;20249;-92
2021/10/05 04:17:57;;;;;;;10.02;5.43;;;;;;;;;;4838669;29;20702;-92
2021/10/05 04:21:10;;;;;;;13.40;5.18;;;;;;;;;;4845841;29;20282;-91
2021/10/05 04:24:21;;;;;;;9.75;5.88;;;;;;;;;;4840747;29;20238;-91
2021/10/05 04:27:33;;;;;;;10.68;5.90;;;;;;;;;;4840389;29;20657;-91
2021/10/05 04:30:46;;;;;;;10.95;6.32;;;;;;;;;;4840318;29;20595;-91
2021/10/05 04:33:58;;;;;;;14.13;6.30;;;;;;;;;;4838065;29;20195;-91
2021/10/05 04:37:10;;;;;;;10.82;5.40;;;;;;;;;;4838725;29;20227;-91
2021/10/05 04:40:23;;;;;;;10.73;6.15;;;;;;;;;;4839291;29;20263;-92
2021/10/05 04:43:35;;;;;;;11.27;6.38;;;;;;;;;;4839410;29;20188;-91
2021/10/05 04:46:46;;;;;;;12.85;6.45;;;;;;;;;;4840007;29;20202;-91
2021/10/05 04:49:58;;;;;;;11.50;6.13;;;;;;;;;;4839123;29;20263;-91
2021/10/05 04:53:10;;;;;;;11.10;6.25;;;;;;;;;;4838276;29;20221;-90
2021/10/05 04:56:22;;;;;;;9.80;5.75;;;;;;;;;;4838407;29;20195;-90
2021/10/05 04:59:34;;;;;;;12.02;6.32;;;;;;;;;;4839613;29;20302;-91
2021/10/05 05:02:47;;;;;;;21.73;6.18;;;;;;;;;;4838507;29;20196;-90
2021/10/05 05:05:59;;;;;;;12.73;6.03;;;;;;;;;;4839483;29;20210;-92
2021/10/05 05:09:20;;;;;;;10.60;5.85;;;;;;;;;;4838995;29;20206;-91
2021/10/05 05:12:32;;;;;;;12.80;6.53;;;;;;;;;;4840244;29;20196;-91
2021/10/05 05:15:45;;;;;;;11.52;6.07;;;;;;;;;;4842359;29;20195;-91
2021/10/05 05:19:09;;;;;;;14.02;6.40;;;;;;;;;;4840863;29;20227;-91
2021/10/05 05:22:23;;;;;;;9.77;5.25;;;;;;;;;;4840331;29;20204;-91
2021/10/05 05:25:34;;;;;;;9.85;5.10;;;;;;;;;;4839450;29;20195;-91
2021/10/05 05:28:46;;;;;;;9.70;5.68;;;;;;;;;;4837310;29;20229;-89
2021/10/05 05:31:58;;;;;;;12.70;6.55;;;;;;;;;;4838200;29;20195;-91
2021/10/05 05:38:44;;;;;;;15.40;6.38;;;;;;;;;;4848663;29;20231;-91
2021/10/05 05:41:56;;;;;;;11.57;5.95;;;;;;;;;;4839173;29;20576;-91
2021/10/05 05:45:07;;;;;;;10.48;6.32;;;;;;;;;;4840498;29;20196;-92
2021/10/05 05:48:19;;;;;;;11.90;6.47;;;;;;;;;;4839267;29;20290;-90
2021/10/05 05:51:31;;;;;;;16.80;6.97;;;;;;;;;;4837963;29;20671;-89
2021/10/05 05:54:43;;;;;;;11.40;6.40;;;;;;;;;;4838771;29;20549;-91
2021/10/05 05:57:55;;;;;;;15.23;6.25;;;;;;;;;;4835885;29;20246;-92
2021/10/05 06:01:07;;;;;;;10.95;6.03;;;;;;;;;;4836651;29;20199;-91
2021/10/05 06:04:19;;;;;;;16.25;7.38;;;;;;;;;;4837875;29;20187;-90
2021/10/05 06:07:31;;;;;;;13.63;6.35;;;;;;;;;;4837091;29;20200;-89
2021/10/05 06:10:45;;;;;;;9.73;5.88;;;;;;;;;;4837979;29;20652;-89
2021/10/05 06:13:57;;;;;;;12.73;6.00;;;;;;;;;;4838448;29;20196;-90
2021/10/05 06:17:11;;;;;;;14.27;7.15;;;;;;;;;;4837915;29;20716;-89
2021/10/05 06:20:24;;;;;;;16.75;6.82;;;;;;;;;;4839962;29;20195;-90
2021/10/05 06:23:36;;;;;;;11.73;7.40;;;;;;;;;;4836725;29;20195;-92
2021/10/05 06:26:51;;;;;;;12.73;7.15;;;;;;;;;;4840698;29;20192;-91
2021/10/05 12:40:09;;;;;;;25.67;11.65;;;;;;;;;;5310742;24;20318;-90
2021/10/05 12:43:23;;;;;;;25.45;11.38;;;;;;;;;;4859955;29;20218;-90
2021/10/05 12:46:35;;;;;;;24.15;12.32;;;;;;;;;;4875033;29;20310;-91
2021/10/05 12:49:52;;;;;;;28.63;11.35;;;;;;;;;;4873774;29;20332;-92
2021/10/05 12:53:06;;;;;;;24.27;12.20;;;;;;;;;;4858082;29;20199;-90
2021/10/05 12:56:35;;;;;;;26.63;12.98;;;;;;;;;;4855757;29;20195;-90
2021/10/05 12:59:54;;;;;;;22.45;12.32;;;;;;;;;;4857861;29;20226;-90
2021/10/05 13:03:07;;;;;;;23.70;11.93;;;;;;;;;;4866449;29;20207;-91
2021/10/05 13:06:20;;;;;;;24.45;12.02;;;;;;;;;;4861473;29;20281;-91
2021/10/05 13:09:31;;;;;;;25.08;13.07;;;;;;;;;;4861183;29;20281;-91
2021/10/05 13:12:44;;;;;;;24.27;13.40;;;;;;;;;;4858550;29;20206;-92
2021/10/05 13:15:57;;;;;;;27.40;14.00;;;;;;;;;;4858724;29;20214;-92
2021/10/05 13:19:08;;;;;;;27.52;13.82;;;;;;;;;;4858126;29;20283;-92
2021/10/05 13:22:20;;;;;;;25.20;13.38;;;;;;;;;;4856153;29;20666;-90
2021/10/05 13:25:33;;;;;;;28.35;14.50;;;;;;;;;;4855996;29;20569;-90
2021/10/05 13:28:47;;;;;;;28.63;14.70;;;;;;;;;;4856357;29;20199;-90
2021/10/05 13:31:58;;;;;;;29.77;15.43;;;;;;;;;;4859528;29;20300;-91
2021/10/05 13:35:11;;;;;;;29.60;15.25;;;;;;;;;;4876284;29;20243;-91
2021/10/05 13:38:22;;;;;;;27.65;15.80;;;;;;;;;;4874480;29;20213;-91
2021/10/05 13:41:36;;;;;;;32.97;16.98;;;;;;;;;;4859114;29;20275;-91
2021/10/05 13:44:48;;;;;;;32.75;16.30;;;;;;;;;;4874768;29;20693;-90
2021/10/05 13:48:00;;;;;;;29.27;16.95;;;;;;;;;;4873798;29;20207;-90
2021/10/05 13:51:12;;;;;;;33.38;17.08;;;;;;;;;;4853476;29;20207;-90
2021/10/05 13:54:23;;;;;;;35.95;16.65;;;;;;;;;;4861758;29;20205;-90
2021/10/05 13:57:35;;;;;;;34.63;17.63;;;;;;;;;;4873810;29;20342;-91
2021/10/05 14:00:48;;;;;;;29.90;17.45;;;;;;;;;;4873304;29;20198;-90
2021/10/05 14:04:00;;;;;;;33.20;18.63;;;;;;;;;;4867382;29;20218;-91
2021/10/05 14:07:15;;;;;;;31.73;16.23;;;;;;;;;;4863807;29;20245;-91
2021/10/05 14:10:28;;;;;;;31.65;16.90;;;;;;;;;;4855001;29;20202;-91
2021/10/05 14:13:39;;;;;;;34.65;17.90;;;;;;;;;;4855524;29;20328;-90
2021/10/05 14:16:53;;;;;;;31.02;17.90;;;;;;;;;;4874625;29;20197;-90
2021/10/05 14:20:05;;;;;;;37.55;18.05;;;;;;;;;;4852879;29;20360;-91
2021/10/05 14:23:16;;;;;;;34.15;17.77;;;;;;;;;;4853586;29;20290;-91
2021/10/05 14:26:29;;;;;;;32.60;17.95;;;;;;;;;;4853158;29;20268;-91
2021/10/05 14:29:43;;;;;;;41.67;17.88;;;;;;;;;;4871618;29;20323;-90
2021/10/05 14:32:56;;;;;;;35.63;17.98;;;;;;;;;;4862128;29;20210;-90
2021/10/05 14:36:08;;;;;;;32.92;17.00;;;;;;;;;;4866584;29;20212;-92
2021/10/05 14:39:22;;;;;;;32.78;17.05;;;;;;;;;;4861074;29;20234;-90
2021/10/05 14:42:34;;;;;;;29.33;15.70;;;;;;;;;;4858827;29;20260;-92
2021/10/05 14:49:16;;;;;;;27.52;16.38;;;;;;;;;;4856082;29;20205;-90
2021/10/05 14:52:28;;;;;;;29.77;16.17;;;;;;;;;;4854694;29;20218;-90
2021/10/05 14:55:40;;;;;;;34.65;16.50;;;;;;;;;;4858728;29;20194;-89
2021/10/05 14:58:52;;;;;;;29.15;17.00;;;;;;;;;;4871469;29;20214;-91
2021/10/05 15:02:07;;;;;;;34.38;18.80;;;;;;;;;;4871225;29;20201;-90
2021/10/05 15:05:21;;;;;;;33.97;18.58;;;;;;;;;;4854238;29;20295;-90
2021/10/05 15:08:33;;;;;;;34.47;19.23;;;;;;;;;;4872249;29;20224;-90
2021/10/05 15:11:53;;;;;;;32.40;18.63;;;;;;;;;;4859877;29;20274;-89
2021/10/05 15:15:06;;;;;;;34.55;17.48;;;;;;;;;;4852767;29;20289;-91
2021/10/05 15:18:17;;;;;;;31.58;16.35;;;;;;;;;;4852704;29;20301;-91
2021/10/05 15:21:32;;;;;;;32.90;17.23;;;;;;;;;;4861470;29;20198;-92
2021/10/05 15:24:43;;;;;;;30.75;16.45;;;;;;;;;;4860375;29;20203;-91
2021/10/05 15:28:08;;;;;;;32.63;17.00;;;;;;;;;;4859356;29;20194;-91
2021/10/05 15:31:21;;;;;;;34.35;16.52;;;;;;;;;;4860543;29;20245;-91
2021/10/05 15:34:35;;;;;;;32.72;16.63;;;;;;;;;;4858444;29;20189;-89
2021/10/05 15:37:47;;;;;;;31.05;17.30;;;;;;;;;;4856013;29;20194;-91
2021/10/05 15:40:59;;;;;;;32.35;17.17;;;;;;;;;;4866647;29;20312;-90
2021/10/05 15:44:12;;;;;;;29.42;15.75;;;;;;;;;;4870718;29;20210;-90
2021/10/05 15:47:24;;;;;;;35.88;17.58;;;;;;;;;;4870372;29;20214;-91
2021/10/05 15:50:42;;;;;;;36.55;16.80;;;;;;;;;;4852589;29;20202;-92
2021/10/05 15:53:55;;;;;;;34.55;16.88;;;;;;;;;;4851902;29;20610;-89
2021/10/05 15:57:15;;;;;;;31.40;17.20;;;;;;;;;;4856320;29;20199;-91
2021/10/05 16:00:28;;;;;;;32.08;17.30;;;;;;;;;;4856300;29;20366;-91
2021/10/05 16:08:11;;;;;;;35.40;16.83;;;;;;;;;;4858632;29;20239;-90
2021/10/05 16:11:26;;;;;;;33.15;17.35;;;;;;;;;;4863159;29;20236;-90
2021/10/05 16:14:37;;;;;;;43.63;20.17;;;;;;;;;;4860965;29;20261;-91
2021/10/05 16:17:53;;;;;;;35.53;18.95;;;;;;;;;;4861237;29;20194;-91
2021/10/05 16:21:06;;;;;;;32.35;17.52;;;;;;;;;;4860975;29;20184;-91
2021/10/05 16:24:17;;;;;;;30.10;16.85;;;;;;;;;;4861444;29;20190;-90
2021/10/05 16:27:31;;;;;;;34.08;17.17;;;;;;;;;;4860205;29;20281;-91
2021/10/05 16:30:51;;;;;;;28.30;15.77;;;;;;;;;;4860011;29;20191;-89
2021/10/05 16:34:03;;;;;;;28.75;15.82;;;;;;;;;;4865722;29;20209;-92
2021/10/05 16:37:15;;;;;;;29.67;17.90;;;;;;;;;;4874350;29;20206;-90
2021/10/05 16:40:27;;;;;;;31.52;17.55;;;;;;;;;;4874501;29;20709;-91
2021/10/05 16:43:41;;;;;;;26.95;15.77;;;;;;;;;;4876933;29;20198;-90
2021/10/05 16:46:53;;;;;;;29.27;17.02;;;;;;;;;;4870649;29;20206;-91
2021/10/05 22:09:21;;;;;;;31.25;16.45;;;;;;;;;;5050505;24;20612;-91
2021/10/05 22:12:32;;;;;;;26.00;15.15;;;;;;;;;;4873683;29;20270;-90
2021/10/05 22:15:44;;;;;;;29.63;15.05;;;;;;;;;;4872820;29;20240;-90
2021/10/05 22:18:56;;;;;;;29.55;14.25;;;;;;;;;;4872398;29;20194;-91
2021/10/05 22:22:08;;;;;;;27.35;14.18;;;;;;;;;;4873082;29;20182;-91
2021/10/05 22:25:20;;;;;;;27.48;14.10;;;;;;;;;;4872404;29;20198;-91
2021/10/05 22:28:32;;;;;;;28.65;15.35;;;;;;;;;;4871989;29;20206;-91
2021/10/05 22:31:44;;;;;;;32.78;16.35;;;;;;;;;;4871904;29;20193;-91
2021/10/05 22:34:59;;;;;;;30.05;16.23;;;;;;;;;;4867953;29;20566;-90
2021/10/05 22:38:11;;;;;;;29.63;15.90;;;;;;;;;;4854846;29;20748;-89
2021/10/05 22:41:25;;;;;;;30.75;16.02;;;;;;;;;;4856364;29;20204;-90
2021/10/05 22:44:37;;;;;;;29.95;16.10;;;;;;;;;;4854919;29;20191;-91
2021/10/05 22:47:49;;;;;;;31.35;16.23;;;;;;;;;;4855136;29;20626;-90
2021/10/05 22:51:02;;;;;;;30.55;15.73;;;;;;;;;;4854045;29;20186;-91
2021/10/05 22:54:13;;;;;;;31.30;16.95;;;;;;;;;;4856190;29;20202;-91
2021/10/05 22:57:27;;;;;;;35.28;16.63;;;;;;;;;;4863731;29;20756;-91
2021/10/05 23:00:38;;;;;;;29.95;15.57;;;;;;;;;;4872684;29;20300;-90
2021/10/05 23:04:36;;;;;;;27.77;15.13;;;;;;;;;;4874278;29;20337;-90
2021/10/05 23:07:48;;;;;;;32.58;16.45;;;;;;;;;;4873829;29;20201;-92
2021/10/05 23:11:00;;;;;;;30.75;15.73;;;;;;;;;;4875124;29;20208;-90
2021/10/05 23:14:13;;;;;;;33.17;15.95;;;;;;;;;;4866845;29;20235;-89
2021/10/05 23:17:25;;;;;;;29.70;15.75;;;;;;;;;;4864691;29;20211;-90
2021/10/05 23:20:36;;;;;;;28.88;16.27;;;;;;;;;;4873005;29;20296;-91
2021/10/05 23:23:49;;;;;;;28.23;15.50;;;;;;;;;;4872664;29;20193;-90
2021/10/05 23:27:00;;;;;;;35.22;16.60;;;;;;;;;;4871541;29;20227;-90
2021/10/05 23:30:13;;;;;;;25.35;14.55;;;;;;;;;;4851874;29;20199;-91
2021/10/05 23:33:25;;;;;;;29.17;14.95;;;;;;;;;;4853209;29;20259;-90
2021/10/05 23:36:37;;;;;;;31.25;15.48;;;;;;;;;;4854817;29;20198;-90
2021/10/05 23:39:49;;;;;;;32.08;15.80;;;;;;;;;;4855228;29;20230;-90
2021/10/05 23:43:02;;;;;;;30.60;16.02;;;;;;;;;;4852092;29;20183;-89
2021/10/05 23:46:15;;;;;;;29.73;15.75;;;;;;;;;;4854875;29;20206;-91
2021/10/05 23:49:27;;;;;;;30.10;16.23;;;;;;;;;;4868046;29;20206;-91
2021/10/05 23:52:39;;;;;;;33.10;16.45;;;;;;;;;;4873876;29;20291;-90
2021/10/05 23:55:51;;;;;;;30.58;16.10;;;;;;;;;;4872718;29;20202;-90
2021/10/05 23:59:03;;;;;;;31.10;16.33;;;;;;;;;;4874145;29;20207;-90
